Time;durP1;ratioP1;P1;durP2;ratioP2;P2;SDS_P1;SDS_P2;PMS_P1;PMS_P2;Temp;Humidity;BMP_temperature;BMP_pressure;BME280_temperature;BME280_humidity;BME280_pressure;Samples;Min_cycle;Max_cycle;Signal;HPM_P1;HPM_P2
2022/08/28 00:00:16;;;;;;;;;;;17.10;91.50;;;;;;5095282;28;19923;-72
2022/08/28 00:02:42;;;;;;;;;;;17.20;91.60;;;;;;5114442;27;20446;-72
2022/08/28 00:05:08;;;;;;;;;;;17.20;91.60;;;;;;5120162;27;19924;-72
2022/08/28 00:07:35;;;;;;;;;;;17.20;91.70;;;;;;5119319;27;20281;-72
2022/08/28 00:10:00;;;;;;;;;;;17.20;91.70;;;;;;5119994;27;19969;-72
2022/08/28 00:12:26;;;;;;;;;;;17.20;91.70;;;;;;5132675;27;19963;-72
2022/08/28 00:14:52;;;;;;;;;;;17.20;91.70;;;;;;5113001;28;19919;-72
2022/08/28 00:17:17;;;;;;;;;;;17.10;91.80;;;;;;5126430;27;19919;-72
2022/08/28 00:19:43;;;;;;;;;;;17.10;91.90;;;;;;5112834;27;19981;-72
2022/08/28 00:22:09;;;;;;;;;;;17.10;91.80;;;;;;5113386;27;19927;-73
2022/08/28 00:24:35;;;;;;;;;;;17.10;92.00;;;;;;5112755;28;19919;-73
2022/08/28 00:29:45;;;;;;;;;;;17.10;92.00;;;;;;5111876;28;19973;-72
2022/08/28 00:32:10;;;;;;;;;;;17.10;92.10;;;;;;5128510;27;20385;-73
2022/08/28 00:34:36;;;;;;;;;;;17.10;92.10;;;;;;5126513;27;20382;-73
2022/08/28 00:37:01;;;;;;;;;;;17.10;92.10;;;;;;5131744;27;19920;-72
2022/08/28 00:39:27;;;;;;;;;;;17.10;92.10;;;;;;5132083;27;19988;-73
2022/08/28 00:41:53;;;;;;;;;;;17.00;92.10;;;;;;5117837;27;19966;-72
2022/08/28 00:44:20;;;;;;;;;;;17.00;92.40;;;;;;5110098;28;20044;-73
2022/08/28 00:46:47;;;;;;;;;;;17.00;92.40;;;;;;5123928;27;19919;-72
2022/08/28 00:49:14;;;;;;;;;;;16.90;92.60;;;;;;5131474;27;20002;-72
2022/08/28 00:54:24;;;;;;;;;;;16.90;92.60;;;;;;5131492;27;20005;-73
2022/08/28 00:56:52;;;;;;;;;;;16.90;92.30;;;;;;5131574;27;20010;-72
2022/08/28 00:59:19;;;;;;;;;;;16.90;92.40;;;;;;5100124;27;19923;-72
2022/08/28 01:01:45;;;;;;;;;;;16.90;92.40;;;;;;5120915;27;20378;-72
2022/08/28 01:04:15;;;;;;;;;;;16.90;92.30;;;;;;5099874;27;19955;-71
2022/08/28 01:06:42;;;;;;;;;;;16.80;92.20;;;;;;5119615;27;19919;-72
2022/08/28 01:09:07;;;;;;;;;;;16.80;92.30;;;;;;5130354;27;19920;-73
2022/08/28 01:11:33;;;;;;;;;;;16.80;92.30;;;;;;5100120;27;19926;-72
2022/08/28 01:13:59;;;;;;;;;;;16.80;92.30;;;;;;5119843;27;19927;-72
2022/08/28 01:16:25;;;;;;;;;;;16.80;92.40;;;;;;5124651;27;19959;-72
2022/08/28 01:18:51;;;;;;;;;;;16.80;92.50;;;;;;5110728;27;19966;-72
2022/08/28 01:21:22;;;;;;;;;;;16.80;92.40;;;;;;5111131;27;20015;-72
2022/08/28 01:23:54;;;;;;;;;;;16.80;92.40;;;;;;5093165;28;19919;-72
2022/08/28 01:26:20;;;;;;;;;;;16.80;92.50;;;;;;5118383;27;19923;-73
2022/08/28 01:28:46;;;;;;;;;;;16.70;92.60;;;;;;5117691;27;19920;-72
2022/08/28 01:31:13;;;;;;;;;;;16.70;92.60;;;;;;5106611;28;19975;-73
2022/08/28 01:33:39;;;;;;;;;;;16.60;92.50;;;;;;5111892;27;20354;-72
2022/08/28 01:36:04;;;;;;;;;;;16.70;92.60;;;;;;5117301;27;19927;-72
2022/08/28 01:38:30;;;;;;;;;;;16.60;92.60;;;;;;5117655;27;19919;-72
2022/08/28 01:40:56;;;;;;;;;;;16.60;92.60;;;;;;5112272;27;19964;-72
2022/08/28 01:43:23;;;;;;;;;;;16.60;92.60;;;;;;5109226;28;20008;-72
2022/08/28 01:45:51;;;;;;;;;;;16.50;92.70;;;;;;5110414;28;19919;-72
2022/08/28 01:48:18;;;;;;;;;;;16.50;92.80;;;;;;5123769;27;20561;-72
2022/08/28 01:50:43;;;;;;;;;;;16.60;92.80;;;;;;5130862;27;19974;-73
2022/08/28 01:53:12;;;;;;;;;;;16.50;92.80;;;;;;5116845;27;19977;-72
2022/08/28 01:55:38;;;;;;;;;;;16.50;92.90;;;;;;5110655;27;19970;-72
2022/08/28 01:58:04;;;;;;;;;;;16.50;92.90;;;;;;5123722;27;19999;-72
2022/08/28 02:00:30;;;;;;;;;;;16.50;93.00;;;;;;5116866;27;19923;-72
2022/08/28 02:02:57;;;;;;;;;;;16.50;93.00;;;;;;5130442;27;19919;-72
2022/08/28 02:05:23;;;;;;;;;;;16.50;93.10;;;;;;5099601;27;19920;-72
2022/08/28 02:07:49;;;;;;;;;;;16.50;93.20;;;;;;5130408;27;19923;-72
2022/08/28 02:10:15;;;;;;;;;;;16.40;93.30;;;;;;5110250;28;19930;-73
2022/08/28 02:12:42;;;;;;;;;;;16.40;93.30;;;;;;5124075;27;20006;-72
2022/08/28 02:15:09;;;;;;;;;;;16.40;93.50;;;;;;5104840;28;19993;-72
2022/08/28 02:17:34;;;;;;;;;;;16.30;93.40;;;;;;5123362;27;19919;-73
2022/08/28 02:20:00;;;;;;;;;;;16.30;93.60;;;;;;5129716;27;19927;-72
2022/08/28 02:22:25;;;;;;;;;;;16.30;93.60;;;;;;5128662;27;19930;-72
2022/08/28 02:24:51;;;;;;;;;;;16.20;93.70;;;;;;5128936;27;20309;-72
2022/08/28 02:27:17;;;;;;;;;;;16.30;93.80;;;;;;5128305;27;19919;-72
2022/08/28 02:29:43;;;;;;;;;;;16.30;93.80;;;;;;5129495;27;19926;-73
2022/08/28 02:32:08;;;;;;;;;;;16.30;93.80;;;;;;5127304;28;19925;-72
2022/08/28 02:34:34;;;;;;;;;;;16.30;93.90;;;;;;5107586;28;19923;-73
2022/08/28 02:37:00;;;;;;;;;;;16.30;93.80;;;;;;5124071;28;19980;-72
2022/08/28 02:39:26;;;;;;;;;;;16.30;93.90;;;;;;5123121;28;19923;-73
2022/08/28 02:41:51;;;;;;;;;;;16.20;93.90;;;;;;5110445;28;19923;-73
2022/08/28 02:44:16;;;;;;;;;;;16.20;94.00;;;;;;5129074;27;19920;-72
2022/08/28 02:46:42;;;;;;;;;;;16.10;94.00;;;;;;5129569;27;19919;-73
2022/08/28 02:49:07;;;;;;;;;;;16.10;94.20;;;;;;5073990;28;19920;-73
2022/08/28 02:51:34;;;;;;;;;;;16.10;94.10;;;;;;5112252;27;19976;-72
2022/08/28 02:54:00;;;;;;;;;;;16.00;94.20;;;;;;5118108;28;19967;-72
2022/08/28 02:56:25;;;;;;;;;;;16.10;94.30;;;;;;5094782;28;19967;-72
2022/08/28 02:58:51;;;;;;;;;;;16.00;94.30;;;;;;5121568;28;20014;-72
2022/08/28 03:01:16;;;;;;;;;;;15.90;94.40;;;;;;5125479;27;19926;-73
2022/08/28 03:03:42;;;;;;;;;;;15.90;94.50;;;;;;5129786;27;19919;-72
2022/08/28 03:06:10;;;;;;;;;;;15.90;94.60;;;;;;5128591;27;20591;-72
2022/08/28 03:08:36;;;;;;;;;;;15.80;94.80;;;;;;5126547;27;19926;-72
2022/08/28 03:11:02;;;;;;;;;;;15.80;94.80;;;;;;5131727;27;19919;-72
2022/08/28 03:13:27;;;;;;;;;;;15.80;94.80;;;;;;5131776;27;20301;-72
2022/08/28 03:15:53;;;;;;;;;;;15.80;94.80;;;;;;5147603;27;19969;-72
2022/08/28 03:18:19;;;;;;;;;;;15.80;94.80;;;;;;5145596;27;19943;-72
2022/08/28 03:20:45;;;;;;;;;;;15.80;95.00;;;;;;5120198;27;20416;-73
2022/08/28 03:23:26;;;;;;;;;;;15.80;94.90;;;;;;5134513;27;19920;-73
2022/08/28 03:25:58;;;;;;;;;;;15.70;94.80;;;;;;5118198;27;19926;-72
2022/08/28 03:28:24;;;;;;;;;;;15.80;94.80;;;;;;5132633;27;19919;-73
2022/08/28 03:30:50;;;;;;;;;;;15.70;94.80;;;;;;5129836;27;19919;-72
2022/08/28 03:33:16;;;;;;;;;;;15.80;94.70;;;;;;5101803;27;19923;-72
2022/08/28 03:35:41;;;;;;;;;;;15.80;94.60;;;;;;5134578;27;19923;-73
2022/08/28 03:38:07;;;;;;;;;;;15.80;94.60;;;;;;5133688;27;19980;-72
2022/08/28 03:40:32;;;;;;;;;;;15.90;94.60;;;;;;5121105;27;20347;-72
2022/08/28 03:42:58;;;;;;;;;;;15.90;94.30;;;;;;5129115;27;19931;-73
2022/08/28 03:45:23;;;;;;;;;;;15.90;94.10;;;;;;5133712;27;19919;-72
2022/08/28 03:47:49;;;;;;;;;;;15.90;94.10;;;;;;5131018;27;19919;-73
2022/08/28 03:50:16;;;;;;;;;;;15.90;94.00;;;;;;5123725;27;19933;-72
2022/08/28 03:52:42;;;;;;;;;;;15.90;94.00;;;;;;5149183;27;19941;-72
2022/08/28 03:55:09;;;;;;;;;;;16.00;94.10;;;;;;5140185;27;20389;-74
2022/08/28 03:57:35;;;;;;;;;;;16.00;94.10;;;;;;5129820;27;19920;-73
2022/08/28 04:00:01;;;;;;;;;;;16.00;94.10;;;;;;5134375;27;19925;-73
2022/08/28 04:02:26;;;;;;;;;;;16.10;94.10;;;;;;5133845;27;19920;-72
2022/08/28 04:04:52;;;;;;;;;;;16.10;94.00;;;;;;5119527;27;20386;-73
2022/08/28 04:07:18;;;;;;;;;;;16.00;93.90;;;;;;5133279;27;19930;-73
2022/08/28 04:09:44;;;;;;;;;;;16.10;93.80;;;;;;5133776;27;19926;-72
2022/08/28 04:12:09;;;;;;;;;;;16.10;93.60;;;;;;5124631;27;20026;-72
2022/08/28 04:14:35;;;;;;;;;;;16.10;93.50;;;;;;5115385;27;20423;-72
2022/08/28 04:17:00;;;;;;;;;;;16.10;93.30;;;;;;5132834;27;19963;-73
2022/08/28 04:19:26;;;;;;;;;;;16.10;93.30;;;;;;5131630;27;19919;-73
2022/08/28 04:21:52;;;;;;;;;;;16.10;93.20;;;;;;5113408;27;19968;-73
2022/08/28 04:24:18;;;;;;;;;;;16.00;93.10;;;;;;5125608;27;19930;-73
2022/08/28 04:26:43;;;;;;;;;;;16.10;93.10;;;;;;5120945;27;19920;-73
2022/08/28 04:29:09;;;;;;;;;;;16.10;93.00;;;;;;5099477;27;19923;-72
2022/08/28 04:31:34;;;;;;;;;;;16.10;93.00;;;;;;5121490;27;19923;-72
2022/08/28 04:34:01;;;;;;;;;;;16.10;93.00;;;;;;5131186;27;19930;-72
2022/08/28 04:36:27;;;;;;;;;;;16.10;93.20;;;;;;5124111;27;19919;-73
2022/08/28 04:38:53;;;;;;;;;;;16.10;93.40;;;;;;5125446;27;19950;-72
2022/08/28 04:41:19;;;;;;;;;;;16.10;93.60;;;;;;5112638;27;20014;-72
2022/08/28 04:43:45;;;;;;;;;;;16.10;93.60;;;;;;5126898;27;20420;-73
2022/08/28 04:46:11;;;;;;;;;;;16.10;93.60;;;;;;5124479;27;19965;-72
2022/08/28 04:48:38;;;;;;;;;;;16.10;93.70;;;;;;5113482;27;19926;-73
2022/08/28 04:51:04;;;;;;;;;;;16.10;93.80;;;;;;5131896;27;19923;-72
2022/08/28 04:53:30;;;;;;;;;;;16.00;93.80;;;;;;5131851;27;19967;-72
2022/08/28 04:55:57;;;;;;;;;;;16.00;93.80;;;;;;5132207;27;19919;-72
2022/08/28 04:58:23;;;;;;;;;;;16.00;93.50;;;;;;5131949;27;20423;-73
2022/08/28 05:00:49;;;;;;;;;;;16.00;93.40;;;;;;5104627;28;19920;-72
2022/08/28 05:03:15;;;;;;;;;;;16.00;93.30;;;;;;5126675;27;19919;-72
2022/08/28 05:05:45;;;;;;;;;;;16.00;93.30;;;;;;5131956;27;19919;-73
2022/08/28 05:08:12;;;;;;;;;;;16.00;93.30;;;;;;5115784;27;20377;-72
2022/08/28 05:10:39;;;;;;;;;;;16.00;93.30;;;;;;5121293;27;20462;-72
2022/08/28 05:13:05;;;;;;;;;;;16.00;93.40;;;;;;5128448;27;19988;-73
2022/08/28 05:15:30;;;;;;;;;;;16.00;93.20;;;;;;5111715;27;20894;-73
2022/08/28 05:17:56;;;;;;;;;;;16.00;93.20;;;;;;5112243;27;19923;-73
2022/08/28 05:20:21;;;;;;;;;;;16.00;93.20;;;;;;5109980;28;19923;-72
2022/08/28 05:22:47;;;;;;;;;;;16.00;93.20;;;;;;5124920;27;19985;-72
2022/08/28 05:25:13;;;;;;;;;;;16.00;93.20;;;;;;5116198;27;19926;-72
2022/08/28 05:27:40;;;;;;;;;;;16.00;93.30;;;;;;5119254;27;19923;-73
2022/08/28 05:30:05;;;;;;;;;;;16.00;93.30;;;;;;5102099;28;19977;-72
2022/08/28 05:32:31;;;;;;;;;;;16.00;93.20;;;;;;5111112;27;19946;-72
2022/08/28 05:34:56;;;;;;;;;;;16.00;93.20;;;;;;5111274;28;19919;-72
2022/08/28 05:37:22;;;;;;;;;;;16.10;93.30;;;;;;5111249;28;20002;-72
2022/08/28 05:39:47;;;;;;;;;;;16.20;93.20;;;;;;5110812;28;20002;-72
2022/08/28 05:42:13;;;;;;;;;;;16.30;93.20;;;;;;5124560;27;20319;-73
2022/08/28 05:44:38;;;;;;;;;;;16.40;93.10;;;;;;5117297;27;19923;-73
2022/08/28 05:47:04;;;;;;;;;;;16.50;93.10;;;;;;5131351;27;19919;-72
2022/08/28 05:49:29;;;;;;;;;;;16.60;93.10;;;;;;5117632;27;19935;-72
2022/08/28 05:51:55;;;;;;;;;;;16.70;93.10;;;;;;5117587;27;19927;-72
2022/08/28 05:54:21;;;;;;;;;;;16.70;93.30;;;;;;5110623;28;19923;-72
2022/08/28 05:56:47;;;;;;;;;;;16.80;93.40;;;;;;5130511;27;20362;-73
2022/08/28 05:59:14;;;;;;;;;;;16.80;93.60;;;;;;5131177;27;20010;-72
2022/08/28 06:01:40;;;;;;;;;;;16.80;93.30;;;;;;5124843;27;19966;-72
2022/08/28 06:04:07;;;;;;;;;;;16.90;93.60;;;;;;5109124;28;19919;-73
2022/08/28 06:06:34;;;;;;;;;;;16.80;93.40;;;;;;5116046;27;19966;-73
2022/08/28 06:09:04;;;;;;;;;;;16.90;93.50;;;;;;5130052;27;19923;-72
2022/08/28 06:11:30;;;;;;;;;;;16.80;93.40;;;;;;5117547;27;19920;-72
2022/08/28 06:14:00;;;;;;;;;;;16.80;93.30;;;;;;5116851;27;19919;-72
2022/08/28 06:16:26;;;;;;;;;;;16.80;93.20;;;;;;5112593;27;20301;-73
2022/08/28 06:18:51;;;;;;;;;;;16.80;93.10;;;;;;5116054;27;19920;-72
2022/08/28 06:21:17;;;;;;;;;;;16.90;93.10;;;;;;5117346;27;19919;-72
2022/08/28 06:23:43;;;;;;;;;;;17.00;93.10;;;;;;5117113;27;19919;-73
2022/08/28 06:26:09;;;;;;;;;;;17.00;92.90;;;;;;5112240;27;20347;-73
2022/08/28 06:28:34;;;;;;;;;;;17.10;92.80;;;;;;5116321;27;19919;-72
2022/08/28 06:31:01;;;;;;;;;;;17.10;92.40;;;;;;5110051;28;20068;-72
2022/08/28 06:33:27;;;;;;;;;;;17.20;92.20;;;;;;5123763;28;19927;-72
2022/08/28 06:35:53;;;;;;;;;;;17.20;92.10;;;;;;5095922;28;20433;-72
2022/08/28 06:38:20;;;;;;;;;;;17.30;92.10;;;;;;5110802;27;20411;-72
2022/08/28 06:40:47;;;;;;;;;;;17.40;92.10;;;;;;5126047;27;19926;-72
2022/08/28 06:43:13;;;;;;;;;;;17.40;92.00;;;;;;5126105;27;20026;-73
2022/08/28 06:45:42;;;;;;;;;;;17.40;92.10;;;;;;5125428;27;19942;-73
2022/08/28 06:48:09;;;;;;;;;;;17.40;92.20;;;;;;5121929;27;19935;-73
2022/08/28 06:50:39;;;;;;;;;;;17.40;92.40;;;;;;5125937;27;20027;-73
2022/08/28 06:53:05;;;;;;;;;;;17.40;92.50;;;;;;5128839;27;20005;-73
2022/08/28 06:55:31;;;;;;;;;;;17.40;92.60;;;;;;5130907;27;19924;-72
2022/08/28 06:57:56;;;;;;;;;;;17.40;92.70;;;;;;5133920;27;19930;-73
2022/08/28 07:00:22;;;;;;;;;;;17.40;92.60;;;;;;5132824;27;20353;-73
2022/08/28 07:02:47;;;;;;;;;;;17.50;92.70;;;;;;5127319;27;19923;-73
2022/08/28 07:05:14;;;;;;;;;;;17.60;92.60;;;;;;5132955;27;19926;-73
2022/08/28 07:07:39;;;;;;;;;;;17.70;92.50;;;;;;5126357;27;19976;-73
2022/08/28 07:10:05;;;;;;;;;;;17.70;92.40;;;;;;5130729;27;19919;-73
2022/08/28 07:12:30;;;;;;;;;;;17.80;92.30;;;;;;5124960;27;19931;-73
2022/08/28 07:14:56;;;;;;;;;;;17.90;92.40;;;;;;5128804;27;19942;-73
2022/08/28 07:17:21;;;;;;;;;;;18.10;92.40;;;;;;5126720;27;19972;-74
2022/08/28 07:19:47;;;;;;;;;;;18.10;92.20;;;;;;5132766;27;19919;-73
2022/08/28 07:22:12;;;;;;;;;;;18.20;92.30;;;;;;5131046;27;19920;-72
2022/08/28 07:24:38;;;;;;;;;;;18.20;92.00;;;;;;5126065;27;19920;-71
2022/08/28 07:27:04;;;;;;;;;;;18.20;91.80;;;;;;5128022;27;19923;-72
2022/08/28 07:29:29;;;;;;;;;;;18.20;91.30;;;;;;5131838;27;20373;-72
2022/08/28 07:31:57;;;;;;;;;;;18.20;91.50;;;;;;5107202;27;20208;-73
2022/08/28 07:34:23;;;;;;;;;;;18.20;91.30;;;;;;5128969;27;19919;-74
2022/08/28 07:36:51;;;;;;;;;;;18.30;91.40;;;;;;5131008;27;20354;-74
2022/08/28 07:39:16;;;;;;;;;;;18.40;91.60;;;;;;5127623;27;20385;-74
2022/08/28 07:41:42;;;;;;;;;;;18.50;91.70;;;;;;5124377;27;19931;-74
2022/08/28 07:46:57;;;;;;;;;;;18.80;91.70;;;;;;5122063;27;19919;-73
2022/08/28 07:49:23;;;;;;;;;;;18.90;90.80;;;;;;5127486;27;20792;-73
2022/08/28 07:51:49;;;;;;;;;;;18.90;90.60;;;;;;5126212;27;19926;-73
2022/08/28 07:54:15;;;;;;;;;;;18.80;90.70;;;;;;5127343;27;19920;-73
2022/08/28 07:56:40;;;;;;;;;;;18.80;90.80;;;;;;5127479;27;19920;-71
2022/08/28 07:59:07;;;;;;;;;;;18.80;90.50;;;;;;5115388;27;20317;-73
2022/08/28 08:01:36;;;;;;;;;;;18.80;90.10;;;;;;5124487;27;19926;-72
2022/08/28 08:04:02;;;;;;;;;;;18.80;89.80;;;;;;5115782;27;19992;-71
2022/08/28 08:06:30;;;;;;;;;;;18.80;90.00;;;;;;5129740;27;19921;-71
2022/08/28 08:08:56;;;;;;;;;;;18.80;90.00;;;;;;5124093;27;20302;-71
2022/08/28 08:11:21;;;;;;;;;;;18.90;89.50;;;;;;5117173;27;19923;-70
2022/08/28 08:13:47;;;;;;;;;;;18.90;89.80;;;;;;5126864;27;19919;-71
2022/08/28 08:16:14;;;;;;;;;;;18.80;90.00;;;;;;5125404;27;19920;-71
2022/08/28 08:18:40;;;;;;;;;;;18.80;89.70;;;;;;5113025;27;19931;-72
2022/08/28 08:21:07;;;;;;;;;;;18.80;89.70;;;;;;5125781;27;19934;-72
2022/08/28 08:23:37;;;;;;;;;;;18.80;90.00;;;;;;5122906;27;19919;-71
2022/08/28 08:26:04;;;;;;;;;;;18.80;90.10;;;;;;5114854;27;19920;-72
2022/08/28 08:28:30;;;;;;;;;;;19.00;90.10;;;;;;5114231;27;19998;-72
2022/08/28 08:31:06;;;;;;;;;;;19.10;90.00;;;;;;5118683;27;19938;-72
2022/08/28 08:33:32;;;;;;;;;;;19.10;89.20;;;;;;5113948;27;19934;-72
2022/08/28 08:35:58;;;;;;;;;;;19.20;89.30;;;;;;5114101;27;19920;-71
2022/08/28 08:38:23;;;;;;;;;;;19.20;89.10;;;;;;5120832;27;20289;-71
2022/08/28 08:40:49;;;;;;;;;;;19.40;89.00;;;;;;5127432;27;20051;-71
2022/08/28 08:43:17;;;;;;;;;;;19.40;88.00;;;;;;5121614;27;19927;-72
2022/08/28 08:45:44;;;;;;;;;;;19.50;88.10;;;;;;5128647;27;20293;-72
2022/08/28 08:48:15;;;;;;;;;;;19.60;88.10;;;;;;5112188;27;19965;-72
2022/08/28 08:50:40;;;;;;;;;;;19.80;87.30;;;;;;5116175;27;19919;-71
2022/08/28 08:53:09;;;;;;;;;;;19.80;86.00;;;;;;5112479;27;19920;-72
2022/08/28 08:55:40;;;;;;;;;;;19.70;85.80;;;;;;5117056;27;19923;-71
2022/08/28 08:58:38;;;;;;;;;;;19.60;86.00;;;;;;5119870;27;19920;-72
2022/08/28 09:01:19;;;;;;;;;;;19.60;86.80;;;;;;5080157;27;19923;-72
2022/08/28 09:03:51;;;;;;;;;;;19.90;86.30;;;;;;5117940;27;19919;-72
2022/08/28 09:06:20;;;;;;;;;;;20.10;86.10;;;;;;5121543;27;19926;-72
2022/08/28 09:08:47;;;;;;;;;;;20.30;86.30;;;;;;5117964;27;19927;-72
2022/08/28 09:11:28;;;;;;;;;;;20.40;85.40;;;;;;5119742;27;20005;-73
2022/08/28 09:14:00;;;;;;;;;;;20.40;85.50;;;;;;5122696;27;19923;-72
2022/08/28 09:16:28;;;;;;;;;;;20.30;84.00;;;;;;5125738;27;19923;-71
2022/08/28 09:18:55;;;;;;;;;;;20.30;84.70;;;;;;5119608;27;19927;-72
2022/08/28 09:21:25;;;;;;;;;;;20.30;85.70;;;;;;5129725;27;19919;-72
2022/08/28 09:23:54;;;;;;;;;;;20.50;86.40;;;;;;5108347;28;19919;-72
2022/08/28 09:26:23;;;;;;;;;;;20.80;86.00;;;;;;5118964;27;19931;-72
2022/08/28 09:29:04;;;;;;;;;;;20.90;83.90;;;;;;5121028;27;19930;-72
2022/08/28 09:31:34;;;;;;;;;;;20.70;83.10;;;;;;5111347;27;19955;-72
2022/08/28 09:34:18;;;;;;;;;;;20.60;83.60;;;;;;5128735;27;20011;-72
2022/08/28 09:36:44;;;;;;;;;;;20.40;84.30;;;;;;5111171;27;19919;-71
2022/08/28 09:39:13;;;;;;;;;;;20.30;85.00;;;;;;5122576;27;20373;-72
2022/08/28 09:44:32;;;;;;;;;;;20.10;84.40;;;;;;5128608;27;19974;-72
2022/08/28 09:46:58;;;;;;;;;;;20.00;84.60;;;;;;5122056;27;19977;-73
2022/08/28 09:49:28;;;;;;;;;;;19.90;84.80;;;;;;5111902;27;19926;-72
2022/08/28 09:51:55;;;;;;;;;;;19.90;84.80;;;;;;5127664;27;20361;-73
2022/08/28 09:54:25;;;;;;;;;;;20.50;86.10;;;;;;5110722;27;19930;-72
2022/08/28 09:56:51;;;;;;;;;;;21.40;84.50;;;;;;5123470;27;20014;-73
2022/08/28 09:59:18;;;;;;;;;;;21.70;82.50;;;;;;5111125;27;20015;-72
2022/08/28 10:01:47;;;;;;;;;;;21.80;81.90;;;;;;5113339;27;19927;-73
2022/08/28 10:04:16;;;;;;;;;;;22.30;82.70;;;;;;5118171;27;19920;-73
2022/08/28 10:06:47;;;;;;;;;;;22.80;79.60;;;;;;5113234;27;19972;-72
2022/08/28 10:09:20;;;;;;;;;;;22.90;80.10;;;;;;5116968;27;20369;-72
2022/08/28 10:12:06;;;;;;;;;;;23.20;79.00;;;;;;5129990;27;19926;-73
2022/08/28 10:14:50;;;;;;;;;;;23.60;78.60;;;;;;5111284;27;20038;-72
2022/08/28 10:17:32;;;;;;;;;;;24.30;76.70;;;;;;5110653;28;19923;-72
2022/08/28 10:20:12;;;;;;;;;;;24.20;75.80;;;;;;5117271;27;20296;-72
2022/08/28 10:22:50;;;;;;;;;;;24.10;76.70;;;;;;5130568;27;19926;-73
2022/08/28 10:25:18;;;;;;;;;;;23.90;76.10;;;;;;5130223;27;19926;-72
2022/08/28 10:27:51;;;;;;;;;;;23.30;74.70;;;;;;5112405;27;19920;-72
2022/08/28 10:30:21;;;;;;;;;;;23.30;77.20;;;;;;5121672;27;19920;-72
2022/08/28 10:33:06;;;;;;;;;;;23.60;77.20;;;;;;5111252;28;20004;-72
2022/08/28 10:35:35;;;;;;;;;;;23.40;75.30;;;;;;5110833;28;20401;-72
2022/08/28 10:38:24;;;;;;;;;;;23.00;74.70;;;;;;5110327;28;19924;-72
2022/08/28 10:41:01;;;;;;;;;;;23.20;76.90;;;;;;5114032;28;19923;-72
2022/08/28 10:43:36;;;;;;;;;;;24.10;74.80;;;;;;5130626;27;19973;-72
2022/08/28 10:46:03;;;;;;;;;;;24.60;72.60;;;;;;5116970;28;19923;-72
2022/08/28 10:48:29;;;;;;;;;;;25.10;70.60;;;;;;5116580;28;19984;-72
2022/08/28 10:50:55;;;;;;;;;;;24.90;71.30;;;;;;5130241;27;20330;-72
2022/08/28 10:53:30;;;;;;;;;;;24.40;71.60;;;;;;5129647;27;19919;-72
2022/08/28 10:55:58;;;;;;;;;;;24.10;71.90;;;;;;5100585;28;20006;-72
2022/08/28 10:58:25;;;;;;;;;;;23.80;74.00;;;;;;5114616;28;19920;-72
2022/08/28 11:00:55;;;;;;;;;;;23.80;73.80;;;;;;5119364;28;19919;-72
2022/08/28 11:03:22;;;;;;;;;;;23.60;73.80;;;;;;5127004;28;19974;-72
2022/08/28 11:05:51;;;;;;;;;;;23.50;74.50;;;;;;5110485;28;20388;-72
2022/08/28 11:08:23;;;;;;;;;;;23.80;74.10;;;;;;5113274;28;19919;-72
2022/08/28 11:10:50;;;;;;;;;;;24.50;73.40;;;;;;5100376;28;19927;-72
2022/08/28 11:13:35;;;;;;;;;;;24.90;71.30;;;;;;5115165;27;20301;-72
2022/08/28 11:16:08;;;;;;;;;;;24.80;71.60;;;;;;5128493;28;19963;-72
2022/08/28 11:18:55;;;;;;;;;;;24.70;70.50;;;;;;5118119;28;20452;-72
2022/08/28 11:21:29;;;;;;;;;;;24.50;69.50;;;;;;5078729;28;19972;-73
2022/08/28 11:23:58;;;;;;;;;;;25.10;70.80;;;;;;5111055;28;20455;-73
2022/08/28 11:26:44;;;;;;;;;;;25.80;68.60;;;;;;5129348;27;19930;-72
2022/08/28 11:29:09;;;;;;;;;;;26.00;68.10;;;;;;5131957;27;20012;-72
2022/08/28 11:31:36;;;;;;;;;;;25.90;68.00;;;;;;5134385;27;20359;-73
2022/08/28 11:34:04;;;;;;;;;;;25.70;68.70;;;;;;5119854;27;20436;-73
2022/08/28 11:36:31;;;;;;;;;;;25.20;68.20;;;;;;5132778;27;19924;-73
2022/08/28 11:39:02;;;;;;;;;;;24.90;69.60;;;;;;5121185;27;19974;-72
2022/08/28 11:41:30;;;;;;;;;;;25.20;69.80;;;;;;5129377;27;19928;-72
2022/08/28 11:46:37;;;;;;;;;;;24.60;69.00;;;;;;5145505;27;20305;-72
2022/08/28 11:49:21;;;;;;;;;;;24.40;71.10;;;;;;5149812;27;19941;-72
2022/08/28 11:52:01;;;;;;;;;;;25.10;71.50;;;;;;5121834;28;20015;-72
2022/08/28 11:54:36;;;;;;;;;;;25.50;68.00;;;;;;5126836;27;19920;-72
2022/08/28 11:57:13;;;;;;;;;;;25.70;68.00;;;;;;5113646;28;19962;-72
2022/08/28 11:59:56;;;;;;;;;;;26.20;68.20;;;;;;5113496;27;19965;-73
2022/08/28 12:02:37;;;;;;;;;;;26.70;67.80;;;;;;5129399;27;19919;-72
2022/08/28 12:05:04;;;;;;;;;;;26.50;64.30;;;;;;5102771;28;19941;-73
2022/08/28 12:07:38;;;;;;;;;;;26.50;65.20;;;;;;5126720;27;19923;-73
2022/08/28 12:10:25;;;;;;;;;;;26.50;63.50;;;;;;5121040;27;20513;-72
2022/08/28 12:12:54;;;;;;;;;;;26.10;63.40;;;;;;5123770;27;19927;-71
2022/08/28 12:15:28;;;;;;;;;;;26.00;65.50;;;;;;5115600;27;19919;-72
2022/08/28 12:17:54;;;;;;;;;;;25.90;64.90;;;;;;5122355;27;19919;-73
2022/08/28 12:20:25;;;;;;;;;;;26.10;64.70;;;;;;5126878;27;19927;-72
2022/08/28 12:22:53;;;;;;;;;;;26.60;64.50;;;;;;5122897;27;20010;-73
2022/08/28 12:25:23;;;;;;;;;;;27.00;64.10;;;;;;5124639;27;19976;-73
2022/08/28 12:27:49;;;;;;;;;;;27.40;63.00;;;;;;5127663;27;19920;-73
2022/08/28 12:30:25;;;;;;;;;;;27.60;60.50;;;;;;5136313;27;19941;-72
2022/08/28 12:32:57;;;;;;;;;;;27.10;60.90;;;;;;5136747;27;19927;-73
2022/08/28 12:35:25;;;;;;;;;;;27.10;61.60;;;;;;5148458;27;19919;-72
2022/08/28 12:37:50;;;;;;;;;;;26.80;61.10;;;;;;5133504;27;19920;-72
2022/08/28 12:40:18;;;;;;;;;;;26.70;62.20;;;;;;5142002;27;19919;-72
2022/08/28 12:42:46;;;;;;;;;;;26.40;62.70;;;;;;5118498;27;19924;-72
2022/08/28 12:45:15;;;;;;;;;;;26.10;63.70;;;;;;5122285;27;20565;-72
2022/08/28 12:47:42;;;;;;;;;;;26.50;65.30;;;;;;5133439;27;19919;-72
2022/08/28 12:50:22;;;;;;;;;;;27.10;64.70;;;;;;5125540;27;20019;-72
2022/08/28 12:52:53;;;;;;;;;;;27.00;62.40;;;;;;5128232;27;19951;-72
2022/08/28 12:55:19;;;;;;;;;;;26.70;60.10;;;;;;5132124;27;19979;-72
2022/08/28 12:57:45;;;;;;;;;;;26.50;62.70;;;;;;5116050;27;20064;-72
2022/08/28 13:00:14;;;;;;;;;;;26.50;62.80;;;;;;5111890;28;20385;-72
2022/08/28 13:02:40;;;;;;;;;;;26.50;63.90;;;;;;5126366;27;20334;-73
2022/08/28 13:05:08;;;;;;;;;;;26.50;63.90;;;;;;5111589;27;20003;-72
2022/08/28 13:07:35;;;;;;;;;;;26.10;63.90;;;;;;5129011;27;19927;-72
2022/08/28 13:10:24;;;;;;;;;;;25.80;64.80;;;;;;5131793;27;19924;-71
2022/08/28 13:12:51;;;;;;;;;;;25.30;65.10;;;;;;5076741;27;19924;-73
2022/08/28 13:15:37;;;;;;;;;;;24.90;66.00;;;;;;5111382;27;19919;-73
2022/08/28 13:18:02;;;;;;;;;;;24.70;67.40;;;;;;5114678;27;19942;-72
2022/08/28 13:20:29;;;;;;;;;;;24.30;67.70;;;;;;5126899;27;19927;-73
2022/08/28 13:22:55;;;;;;;;;;;24.10;68.10;;;;;;5115498;27;19919;-72
2022/08/28 13:25:23;;;;;;;;;;;23.90;69.30;;;;;;5111114;27;19942;-72
2022/08/28 13:28:09;;;;;;;;;;;23.90;69.00;;;;;;5099478;28;20002;-72
2022/08/28 13:30:34;;;;;;;;;;;23.90;69.00;;;;;;5121715;27;19920;-71
2022/08/28 13:33:16;;;;;;;;;;;24.30;68.30;;;;;;5104997;27;20395;-71
2022/08/28 13:35:42;;;;;;;;;;;25.00;66.50;;;;;;5111461;27;20288;-71
2022/08/28 13:38:09;;;;;;;;;;;26.00;66.50;;;;;;5098683;27;20011;-71
2022/08/28 13:40:40;;;;;;;;;;;26.30;64.00;;;;;;5119540;27;20289;-71
2022/08/28 13:43:07;;;;;;;;;;;25.80;63.50;;;;;;5099762;27;20380;-71
2022/08/28 13:45:33;;;;;;;;;;;25.20;64.00;;;;;;5103607;28;19930;-70
2022/08/28 13:47:59;;;;;;;;;;;24.90;64.80;;;;;;5123376;27;20030;-71
2022/08/28 13:50:26;;;;;;;;;;;24.40;65.30;;;;;;5119709;27;20010;-71
2022/08/28 13:52:52;;;;;;;;;;;24.00;66.50;;;;;;5117860;27;20023;-72
2022/08/28 13:55:17;;;;;;;;;;;23.80;67.60;;;;;;5121733;27;19973;-70
2022/08/28 13:57:43;;;;;;;;;;;23.70;67.20;;;;;;5111660;27;19931;-72
2022/08/28 14:00:09;;;;;;;;;;;23.50;67.80;;;;;;5114827;27;19993;-71
2022/08/28 14:05:19;;;;;;;;;;;23.20;68.80;;;;;;5119657;27;20411;-70
2022/08/28 14:07:45;;;;;;;;;;;23.00;68.50;;;;;;5129381;27;19919;-70
2022/08/28 14:10:10;;;;;;;;;;;23.00;69.60;;;;;;5127245;27;20373;-70
2022/08/28 14:12:36;;;;;;;;;;;22.90;69.20;;;;;;5111939;27;19924;-71
2022/08/28 14:15:02;;;;;;;;;;;22.90;69.40;;;;;;5099850;28;19920;-71
2022/08/28 14:17:27;;;;;;;;;;;23.00;69.90;;;;;;5127547;27;19985;-71
2022/08/28 14:19:53;;;;;;;;;;;23.10;69.30;;;;;;5119746;27;20013;-71
2022/08/28 14:22:19;;;;;;;;;;;23.10;69.30;;;;;;5125564;27;20275;-70
2022/08/28 14:24:45;;;;;;;;;;;23.10;69.20;;;;;;5121597;27;19966;-71
2022/08/28 14:27:11;;;;;;;;;;;23.00;68.80;;;;;;5123235;27;19919;-71
2022/08/28 14:29:37;;;;;;;;;;;23.00;68.60;;;;;;5110985;28;19923;-70
2022/08/28 14:32:03;;;;;;;;;;;22.90;69.30;;;;;;5123675;27;19926;-71
2022/08/28 14:34:30;;;;;;;;;;;22.80;69.70;;;;;;5112058;28;19919;-71
2022/08/28 14:36:56;;;;;;;;;;;22.80;70.10;;;;;;5111763;28;20552;-70